createdAt,value
2023-04-02T00:01:41.023Z,65.40
2023-04-02T00:05:55.909Z,65.18
2023-04-02T00:09:59.207Z,65.29
2023-04-02T00:14:03.941Z,64.83
2023-04-02T00:18:08.478Z,65.13
2023-04-02T00:22:18.198Z,65.26
2023-04-02T00:26:30.487Z,65.21
2023-04-02T00:30:33.545Z,64.75
2023-04-02T00:34:39.453Z,64.98
2023-04-02T00:38:46.785Z,64.57
2023-04-02T00:42:52.120Z,64.85
2023-04-02T00:46:55.449Z,64.59
2023-04-02T00:51:00.978Z,64.40
2023-04-02T00:55:10.477Z,64.67
2023-04-02T00:59:21.109Z,65.06
2023-04-02T01:03:44.379Z,66.11
2023-04-02T01:08:02.987Z,66.43
2023-04-02T01:12:26.396Z,66.02
2023-04-02T01:16:46.706Z,66.46
2023-04-02T01:21:21.900Z,66.42
2023-04-02T01:25:31.750Z,66.13
2023-04-02T01:29:39.210Z,66.16
2023-04-02T01:33:42.985Z,66.07
2023-04-02T01:37:51.646Z,66.05
2023-04-02T01:42:08.006Z,66.44
2023-04-02T01:46:28.252Z,66.25
2023-04-02T01:50:37.567Z,66.31
2023-04-02T01:54:43.207Z,66.09
2023-04-02T01:58:49.489Z,66.35
2023-04-02T02:02:54.212Z,66.38
2023-04-02T02:07:00.799Z,66.61
2023-04-02T02:11:05.716Z,66.82
2023-04-02T02:15:15.556Z,66.94
2023-04-02T02:19:28.280Z,66.99
2023-04-02T02:23:32.498Z,67.08
2023-04-02T02:27:51.468Z,67.37
2023-04-02T02:31:57.734Z,67.04
2023-04-02T02:36:06.457Z,67.36
2023-04-02T02:40:21.182Z,67.54
2023-04-02T02:44:26.764Z,67.52
2023-04-02T02:48:37.296Z,67.74
2023-04-02T02:52:51.975Z,67.76
2023-04-02T02:57:00.172Z,68.07
2023-04-02T03:01:04.654Z,67.94
2023-04-02T03:05:11.006Z,67.96
2023-04-02T03:09:23.682Z,67.71
2023-04-02T03:13:33.166Z,67.83
2023-04-02T03:17:40.372Z,67.69
2023-04-02T03:21:49.444Z,67.89
2023-04-02T03:26:03.044Z,68.23
2023-04-02T03:30:22.215Z,68.01
2023-04-02T03:34:29.886Z,68.07
2023-04-02T03:38:36.892Z,68.16
2023-04-02T03:42:46.565Z,68.43
2023-04-02T03:46:57.683Z,68.76
2023-04-02T03:51:08.128Z,68.98
2023-04-02T03:55:15.976Z,68.79
2023-04-02T03:59:31.958Z,69.06
2023-04-02T04:03:41.935Z,69.15
2023-04-02T04:07:46.329Z,69.48
2023-04-02T04:11:52.821Z,69.24
2023-04-02T04:16:02.219Z,69.89
2023-04-02T04:20:17.101Z,69.88
2023-04-02T04:24:23.728Z,69.93
2023-04-02T04:28:41.659Z,69.77
2023-04-02T04:32:51.114Z,70.02
2023-04-02T04:37:01.897Z,70.06
2023-04-02T04:41:14.348Z,69.92
2023-04-02T04:45:35.994Z,70.04
2023-04-02T04:49:45.480Z,70.04
2023-04-02T04:53:53.951Z,70.39
2023-04-02T04:58:04.550Z,70.05
2023-04-02T05:02:13.149Z,70.11
2023-04-02T05:06:33.880Z,70.38
2023-04-02T05:10:43.688Z,70.22
2023-04-02T05:14:52.496Z,70.52
2023-04-02T05:19:01.026Z,70.65
2023-04-02T05:23:16.259Z,70.56
2023-04-02T05:27:26.500Z,70.72
2023-04-02T05:31:37.785Z,70.59
2023-04-02T05:35:45.809Z,70.81
2023-04-02T05:39:55.981Z,70.88
2023-04-02T05:44:08.875Z,70.59
2023-04-02T05:48:18.962Z,70.70
2023-04-02T05:52:27.036Z,71.60
2023-04-02T05:56:38.504Z,71.40
2023-04-02T06:01:03.820Z,71.86
2023-04-02T06:05:13.715Z,71.89
2023-04-02T06:09:22.167Z,72.21
2023-04-02T06:13:29.120Z,72.32
2023-04-02T06:17:44.419Z,72.55
2023-04-02T06:21:49.861Z,73.01
2023-04-02T06:26:02.935Z,73.00
2023-04-02T06:30:18.649Z,73.52
2023-04-02T06:34:26.928Z,73.75
2023-04-02T06:38:37.165Z,74.46
2023-04-02T06:42:43.481Z,74.56
2023-04-02T06:47:17.489Z,74.46
2023-04-02T06:51:27.405Z,74.33
2023-04-02T06:55:37.951Z,74.67
2023-04-02T06:59:41.621Z,74.83
2023-04-02T07:03:53.544Z,74.75
2023-04-02T07:08:18.616Z,74.42
2023-04-02T07:12:28.857Z,74.46
2023-04-02T07:16:37.745Z,74.40
2023-04-02T07:20:42.799Z,74.59
2023-04-02T07:25:00.580Z,74.11
2023-04-02T07:29:03.983Z,74.11
2023-04-02T07:33:07.024Z,73.42
2023-04-02T07:37:15.353Z,73.55
2023-04-02T07:41:19.676Z,73.68
2023-04-02T07:45:22.790Z,73.75
2023-04-02T07:49:25.787Z,73.79
2023-04-02T07:53:32.160Z,73.27
2023-04-02T07:57:35.209Z,73.11
2023-04-02T08:01:38.407Z,73.25
2023-04-02T08:05:41.495Z,72.77
2023-04-02T08:09:46.047Z,72.51
2023-04-02T08:13:49.141Z,72.40
2023-04-02T08:17:53.522Z,71.68
2023-04-02T08:21:56.660Z,71.32
2023-04-02T08:26:01.066Z,70.43
2023-04-02T08:30:04.918Z,70.65
2023-04-02T08:34:07.989Z,70.56
2023-04-02T08:38:15.519Z,70.35
2023-04-02T08:42:29.337Z,70.14
2023-04-02T08:46:38.895Z,69.41
2023-04-02T08:50:44.264Z,69.18
2023-04-02T08:54:47.746Z,69.07
2023-04-02T08:58:56.201Z,69.48
2023-04-02T09:03:03.848Z,68.78
2023-04-02T09:07:07.108Z,68.52
2023-04-02T09:11:17.314Z,68.39
2023-04-02T09:15:30.723Z,68.16
2023-04-02T09:19:38.130Z,68.22
2023-04-02T09:23:41.272Z,67.82
2023-04-02T09:27:49.037Z,67.79
2023-04-02T09:32:01.002Z,67.25
2023-04-02T09:36:04.207Z,67.15
2023-04-02T09:40:18.446Z,66.95
2023-04-02T09:44:24.421Z,66.24
2023-04-02T09:48:31.450Z,65.77
2023-04-02T09:52:34.846Z,65.57
2023-04-02T09:56:39.259Z,65.59
2023-04-02T10:00:51.295Z,65.58
2023-04-02T10:04:56.096Z,65.36
2023-04-02T10:08:59.330Z,65.26
2023-04-02T10:13:05.357Z,64.19
2023-04-02T10:17:14.018Z,64.20
2023-04-02T10:21:20.668Z,63.98
2023-04-02T10:25:27.687Z,64.03
2023-04-02T10:30:02.518Z,64.43
2023-04-02T10:34:13.757Z,64.63
2023-04-02T10:38:42.893Z,64.44
2023-04-02T10:42:56.820Z,64.78
2023-04-02T10:47:09.243Z,65.24
2023-04-02T10:51:21.331Z,65.20
2023-04-02T10:55:30.231Z,65.10
2023-04-02T10:59:38.325Z,65.11
2023-04-02T11:03:47.809Z,64.94
2023-04-02T11:07:56.752Z,65.29
2023-04-02T11:12:03.181Z,64.96
2023-04-02T11:16:06.815Z,65.37
2023-04-02T11:20:47.245Z,65.62
2023-04-02T11:24:51.883Z,65.15
2023-04-02T11:29:08.065Z,64.82
2023-04-02T11:33:44.297Z,64.89
2023-04-02T11:37:48.680Z,67.15
2023-04-02T11:42:24.945Z,69.24
2023-04-02T11:46:47.660Z,70.00
2023-04-02T11:50:50.868Z,70.85
2023-04-02T11:55:00.914Z,70.90
2023-04-02T11:59:13.023Z,71.55
2023-04-02T12:03:34.608Z,72.22
2023-04-02T12:07:55.868Z,72.91
2023-04-02T12:12:01.242Z,73.05
2023-04-02T12:16:04.916Z,74.15
2023-04-02T12:20:24.180Z,74.54
2023-04-02T12:24:31.374Z,75.01
2023-04-02T12:28:38.030Z,76.48
2023-04-02T12:32:41.549Z,76.13
2023-04-02T12:36:55.133Z,76.56
2023-04-02T12:40:59.716Z,76.69
2023-04-02T12:45:05.016Z,75.54
2023-04-02T12:49:21.849Z,75.99
2023-04-02T12:53:31.594Z,75.86
2023-04-02T12:57:40.750Z,76.37
2023-04-02T13:01:57.159Z,76.00
2023-04-02T13:06:00.525Z,76.27
2023-04-02T13:10:08.510Z,76.51
2023-04-02T13:14:19.992Z,76.26
2023-04-02T13:18:24.286Z,76.28
2023-04-02T13:22:32.209Z,76.00
2023-04-02T13:26:36.723Z,76.53
2023-04-02T13:30:39.787Z,76.30
2023-04-02T13:34:42.810Z,76.57
2023-04-02T13:38:46.036Z,77.01
2023-04-02T13:42:50.902Z,76.91
2023-04-02T13:46:55.149Z,76.64
2023-04-02T13:50:58.238Z,76.27
2023-04-02T13:55:05.849Z,75.82
2023-04-02T13:59:11.419Z,76.07
2023-04-02T14:03:18.611Z,76.30
2023-04-02T14:07:45.140Z,75.72
2023-04-02T14:11:58.047Z,74.97
2023-04-02T14:16:19.302Z,75.45
2023-04-02T14:20:35.100Z,74.01
2023-04-02T14:24:49.854Z,73.98
2023-04-02T14:29:01.676Z,74.09
2023-04-02T14:33:17.392Z,73.23
2023-04-02T14:37:26.749Z,72.93
2023-04-02T14:41:37.766Z,72.42
2023-04-02T14:45:53.753Z,71.90
2023-04-02T14:50:04.395Z,72.37
2023-04-02T14:54:13.114Z,72.21
2023-04-02T14:58:21.163Z,72.01
2023-04-02T15:02:31.460Z,72.10
2023-04-02T15:06:41.613Z,71.77
2023-04-02T15:10:58.653Z,71.75
2023-04-02T15:15:09.817Z,71.74
2023-04-02T15:19:15.746Z,71.81
2023-04-02T15:23:32.488Z,71.39
2023-04-02T15:27:51.256Z,71.69
2023-04-02T15:32:00.806Z,71.37
2023-04-02T15:36:28.456Z,70.86
2023-04-02T15:40:45.049Z,70.15
2023-04-02T15:45:14.132Z,70.42
2023-04-02T15:49:31.989Z,70.39
2023-04-02T15:53:48.440Z,69.56
2023-04-02T15:58:25.693Z,67.84
2023-04-02T16:02:59.280Z,67.91
2023-04-02T16:07:20.377Z,68.60
2023-04-02T16:11:23.899Z,68.33
2023-04-02T16:15:36.216Z,68.85
2023-04-02T16:19:43.511Z,68.51
2023-04-02T16:23:46.682Z,68.83
2023-04-02T16:27:54.676Z,68.15
2023-04-02T16:32:06.509Z,68.06
2023-04-02T16:36:25.234Z,68.48
2023-04-02T16:40:38.074Z,68.64
2023-04-02T16:44:54.444Z,68.39
2023-04-02T16:49:03.418Z,68.58
2023-04-02T16:53:23.249Z,68.69
2023-04-02T16:57:38.030Z,66.99
2023-04-02T17:01:51.781Z,67.00
2023-04-02T17:06:02.808Z,66.75
2023-04-02T17:10:25.684Z,66.60
2023-04-02T17:14:32.711Z,66.46
2023-04-02T17:18:36.599Z,65.70
2023-04-02T17:22:41.379Z,65.64
2023-04-02T17:26:47.721Z,65.25
2023-04-02T17:30:54.369Z,65.40
2023-04-02T17:34:57.993Z,64.99
2023-04-02T17:39:12.797Z,64.45
2023-04-02T17:43:35.638Z,64.80
2023-04-02T17:47:48.391Z,64.50
2023-04-02T17:51:58.812Z,64.02
2023-04-02T17:56:17.454Z,63.70
2023-04-02T18:00:46.833Z,63.79
2023-04-02T18:04:58.542Z,63.50
2023-04-02T18:09:15.693Z,63.01
2023-04-02T18:13:31.962Z,62.78
2023-04-02T18:17:47.389Z,63.72
2023-04-02T18:21:59.557Z,63.41
2023-04-02T18:26:12.161Z,62.74
2023-04-02T18:30:23.035Z,62.97
2023-04-02T18:34:41.685Z,62.79
2023-04-02T18:38:48.863Z,62.63
2023-04-02T18:43:01.479Z,62.95
2023-04-02T18:47:13.688Z,63.09
2023-04-02T18:51:22.060Z,63.76
2023-04-02T18:55:29.105Z,63.78
2023-04-02T18:59:39.308Z,63.59
2023-04-02T19:03:50.204Z,63.61
2023-04-02T19:07:59.193Z,63.58
2023-04-02T19:12:03.855Z,64.04
2023-04-02T19:16:33.154Z,64.30
2023-04-02T19:20:44.619Z,64.59
2023-04-02T19:25:16.679Z,64.66
2023-04-02T19:29:32.585Z,64.77
2023-04-02T19:33:43.781Z,64.62
2023-04-02T19:37:59.042Z,64.99
2023-04-02T19:42:14.608Z,64.73
2023-04-02T19:46:18.509Z,64.23
2023-04-02T19:50:22.248Z,64.06
2023-04-02T19:54:26.655Z,64.20
2023-04-02T19:58:32.166Z,64.52
2023-04-02T20:02:35.505Z,64.39
2023-04-02T20:06:38.680Z,63.87
2023-04-02T20:10:43.655Z,63.64
2023-04-02T20:14:46.733Z,63.85
2023-04-02T20:18:50.420Z,64.25
2023-04-02T20:22:53.534Z,63.54
2023-04-02T20:26:57.929Z,64.04
2023-04-02T20:31:08.578Z,63.81
2023-04-02T20:35:11.756Z,63.84
2023-04-02T20:39:19.335Z,64.08
2023-04-02T20:43:24.139Z,63.85
2023-04-02T20:47:27.337Z,64.06
2023-04-02T20:51:30.602Z,63.70
2023-04-02T20:55:33.629Z,63.42
2023-04-02T20:59:38.172Z,63.27
2023-04-02T21:03:41.401Z,64.07
2023-04-02T21:07:44.406Z,63.28
2023-04-02T21:11:47.494Z,63.67
2023-04-02T21:15:52.033Z,63.39
2023-04-02T21:19:55.062Z,63.48
2023-04-02T21:24:00.362Z,63.85
2023-04-02T21:28:03.879Z,63.71
2023-04-02T21:32:20.975Z,63.76
2023-04-02T21:36:26.945Z,63.25
2023-04-02T21:40:30.071Z,63.32
2023-04-02T21:44:33.108Z,63.32
2023-04-02T21:48:37.646Z,63.28
2023-04-02T21:52:40.739Z,63.18
2023-04-02T21:56:46.078Z,63.28
2023-04-02T22:00:49.375Z,63.30
2023-04-02T22:04:54.222Z,62.38
2023-04-02T22:08:59.410Z,62.65
2023-04-02T22:13:02.458Z,62.85
2023-04-02T22:17:05.583Z,62.37
2023-04-02T22:21:11.486Z,62.25
2023-04-02T22:25:14.508Z,62.29
2023-04-02T22:29:17.640Z,62.36
2023-04-02T22:33:20.732Z,62.34
2023-04-02T22:37:25.157Z,62.21
2023-04-02T22:41:29.790Z,62.25
2023-04-02T22:45:32.917Z,62.66
2023-04-02T22:49:35.940Z,62.41
2023-04-02T22:53:40.826Z,62.16
2023-04-02T22:57:44.334Z,62.52
2023-04-02T23:01:47.507Z,62.58
2023-04-02T23:05:59.963Z,62.69
2023-04-02T23:10:05.439Z,62.64
2023-04-02T23:14:08.971Z,62.83
2023-04-02T23:18:11.986Z,62.66
2023-04-02T23:22:15.044Z,62.80
2023-04-02T23:26:22.342Z,62.93
2023-04-02T23:30:25.506Z,62.73
2023-04-02T23:34:28.558Z,63.03
2023-04-02T23:38:31.575Z,62.53
2023-04-02T23:42:36.125Z,63.16
2023-04-02T23:46:39.576Z,62.98
2023-04-02T23:50:42.942Z,63.04
2023-04-02T23:54:45.943Z,63.13
2023-04-02T23:58:51.583Z,62.97
